Terminal Aerodrome Forecast
Issued by NWS

Home | Current Version | Previous Version | Text Only | Print | Product List | Glossary On
Versions: 1 2 3 4 5 6 7 8 9 10 11 12 13 14 15
022
FTUS43 KAPX 232324
TAFTVC
TAF
KTVC 232324Z 2400/2424 16005KT P6SM OVC070
     FM240400 17007KT P6SM -RA OVC040
     FM240900 21005KT 5SM -RA BR OVC015
     FM241300 22004KT 4SM BR VCSH OVC010
     FM241600 25004KT 2SM BR VCSH OVC008
     FM241800 31004KT 2SM -RA BR OVC005
     FM242100 01006KT 2SM -RA BR OVC005=

USA.gov is the U.S. government's official web portal to all federal, state and local government web resources and services.